sensor_id;sensor_type;location;lat;lon;timestamp;pressure;altitude;pressure_sealevel;temperature;humidity
55044;BME280;54902;50.420;18.854;2023-04-26T00:00:23;100799.43;;;8.03;63.22
55044;BME280;54902;50.420;18.854;2023-04-26T00:00:54;100803.11;;;8.02;63.24
55044;BME280;54902;50.420;18.854;2023-04-26T00:01:26;100799.55;;;8.02;63.24
55044;BME280;54902;50.420;18.854;2023-04-26T00:01:58;100801.37;;;8.01;63.20
55044;BME280;54902;50.420;18.854;2023-04-26T00:02:30;100799.66;;;8.00;63.24
55044;BME280;54902;50.420;18.854;2023-04-26T00:03:01;100795.93;;;8.01;63.27
55044;BME280;54902;50.420;18.854;2023-04-26T00:03:33;100805.95;;;8.01;63.25
55044;BME280;54902;50.420;18.854;2023-04-26T00:04:04;100798.77;;;8.00;63.32
55044;BME280;54902;50.420;18.854;2023-04-26T00:04:38;100797.92;;;7.99;63.41
55044;BME280;54902;50.420;18.854;2023-04-26T00:05:09;100796.93;;;8.00;63.41
55044;BME280;54902;50.420;18.854;2023-04-26T00:05:40;100812.38;;;8.00;63.43
55044;BME280;54902;50.420;18.854;2023-04-26T00:06:12;100797.02;;;7.99;63.33
55044;BME280;54902;50.420;18.854;2023-04-26T00:06:45;100801.60;;;7.98;63.24
55044;BME280;54902;50.420;18.854;2023-04-26T00:07:18;100807.05;;;7.98;63.25
55044;BME280;54902;50.420;18.854;2023-04-26T00:07:49;100808.02;;;7.97;63.22
55044;BME280;54902;50.420;18.854;2023-04-26T00:08:20;100814.35;;;7.98;63.19
55044;BME280;54902;50.420;18.854;2023-04-26T00:08:51;100803.58;;;7.96;63.30
55044;BME280;54902;50.420;18.854;2023-04-26T00:09:22;100806.30;;;7.96;63.37
55044;BME280;54902;50.420;18.854;2023-04-26T00:09:53;100812.71;;;7.95;63.33
55044;BME280;54902;50.420;18.854;2023-04-26T00:10:24;100795.42;;;7.96;63.30
55044;BME280;54902;50.420;18.854;2023-04-26T00:10:55;100810.97;;;7.94;63.38
55044;BME280;54902;50.420;18.854;2023-04-26T00:11:26;100809.11;;;7.95;63.41
55044;BME280;54902;50.420;18.854;2023-04-26T00:11:57;100803.66;;;7.95;63.48
55044;BME280;54902;50.420;18.854;2023-04-26T00:12:28;100817.26;;;7.95;63.48
55044;BME280;54902;50.420;18.854;2023-04-26T00:12:59;100810.97;;;7.94;63.38
55044;BME280;54902;50.420;18.854;2023-04-26T00:13:30;100810.97;;;7.94;63.46
55044;BME280;54902;50.420;18.854;2023-04-26T00:14:01;100811.94;;;7.93;63.41
55044;BME280;54902;50.420;18.854;2023-04-26T00:14:32;100815.55;;;7.94;63.33
55044;BME280;54902;50.420;18.854;2023-04-26T00:15:04;100817.51;;;7.92;63.29
55044;BME280;54902;50.420;18.854;2023-04-26T00:15:35;100797.29;;;7.83;63.31
55044;BME280;54902;50.420;18.854;2023-04-26T00:16:06;100812.95;;;7.92;63.40
55044;BME280;54902;50.420;18.854;2023-04-26T00:16:37;100818.39;;;7.92;63.33
55044;BME280;54902;50.420;18.854;2023-04-26T00:17:08;100817.51;;;7.92;63.30
55044;BME280;54902;50.420;18.854;2023-04-26T00:17:39;100818.47;;;7.91;63.37
55044;BME280;54902;50.420;18.854;2023-04-26T00:18:12;100816.64;;;7.91;63.38
55044;BME280;54902;50.420;18.854;2023-04-26T00:18:43;100814.03;;;7.90;63.31
55044;BME280;54902;50.420;18.854;2023-04-26T00:19:15;100809.57;;;7.89;63.28
55044;BME280;54902;50.420;18.854;2023-04-26T00:19:47;100822.30;;;7.88;63.28
55044;BME280;54902;50.420;18.854;2023-04-26T00:20:18;100820.57;;;7.87;63.31
55044;BME280;54902;50.420;18.854;2023-04-26T00:20:49;100810.34;;;7.78;63.24
55044;BME280;54902;50.420;18.854;2023-04-26T00:21:21;100815.98;;;7.88;63.28
55044;BME280;54902;50.420;18.854;2023-04-26T00:21:52;100816.95;;;7.87;63.28
55044;BME280;54902;50.420;18.854;2023-04-26T00:22:23;100822.39;;;7.87;63.25
55044;BME280;54902;50.420;18.854;2023-04-26T00:22:55;100817.06;;;7.85;63.32
55044;BME280;54902;50.420;18.854;2023-04-26T00:23:26;100816.10;;;7.86;63.29
55044;BME280;54902;50.420;18.854;2023-04-26T00:23:56;100827.95;;;7.85;63.26
55044;BME280;54902;50.420;18.854;2023-04-26T00:24:28;100827.95;;;7.85;63.29
55044;BME280;54902;50.420;18.854;2023-04-26T00:24:58;100820.77;;;7.84;63.26
55044;BME280;54902;50.420;18.854;2023-04-26T00:25:29;100819.05;;;7.83;63.24
55044;BME280;54902;50.420;18.854;2023-04-26T00:26:01;100818.94;;;7.85;63.18
55044;BME280;54902;50.420;18.854;2023-04-26T00:26:32;100821.77;;;7.83;63.18
55044;BME280;54902;50.420;18.854;2023-04-26T00:27:04;100820.88;;;7.83;63.15
55044;BME280;54902;50.420;18.854;2023-04-26T00:27:40;100810.34;;;7.78;63.32
55044;BME280;54902;50.420;18.854;2023-04-26T00:28:11;100811.00;;;7.82;63.09
55044;BME280;54902;50.420;18.854;2023-04-26T00:28:42;100822.73;;;7.82;62.99
55044;BME280;54902;50.420;18.854;2023-04-26T00:29:13;100820.13;;;7.81;62.92
55044;BME280;54902;50.420;18.854;2023-04-26T00:29:44;100830.12;;;7.80;62.88
55044;BME280;54902;50.420;18.854;2023-04-26T00:30:15;100819.24;;;7.80;62.83
55044;BME280;54902;50.420;18.854;2023-04-26T00:30:46;100823.94;;;7.78;62.80
55044;BME280;54902;50.420;18.854;2023-04-26T00:31:18;100823.94;;;7.78;62.78
55044;BME280;54902;50.420;18.854;2023-04-26T00:31:49;100821.23;;;7.78;62.77
55044;BME280;54902;50.420;18.854;2023-04-26T00:32:20;100824.05;;;7.77;62.75
55044;BME280;54902;50.420;18.854;2023-04-26T00:32:51;100825.03;;;7.76;62.71
55044;BME280;54902;50.420;18.854;2023-04-26T00:33:25;100828.60;;;7.76;62.69
55044;BME280;54902;50.420;18.854;2023-04-26T00:33:56;100833.30;;;7.74;62.66
55044;BME280;54902;50.420;18.854;2023-04-26T00:34:33;100829.70;;;7.74;62.66
55044;BME280;54902;50.420;18.854;2023-04-26T00:35:05;100832.52;;;7.72;62.62
55044;BME280;54902;50.420;18.854;2023-04-26T00:35:37;100832.52;;;7.72;62.64
55044;BME280;54902;50.420;18.854;2023-04-26T00:36:08;100825.38;;;7.71;62.62
55044;BME280;54902;50.420;18.854;2023-04-26T00:36:40;100830.81;;;7.71;62.58
55044;BME280;54902;50.420;18.854;2023-04-26T00:37:11;100838.19;;;7.69;62.56
55044;BME280;54902;50.420;18.854;2023-04-26T00:37:42;100839.27;;;7.67;62.54
55044;BME280;54902;50.420;18.854;2023-04-26T00:38:13;100832.98;;;7.66;62.55
55044;BME280;54902;50.420;18.854;2023-04-26T00:38:44;100832.98;;;7.66;62.51
55044;BME280;54902;50.420;18.854;2023-04-26T00:39:16;100840.36;;;7.64;62.55
55044;BME280;54902;50.420;18.854;2023-04-26T00:39:47;100834.07;;;7.64;62.55
55044;BME280;54902;50.420;18.854;2023-04-26T00:40:18;100837.75;;;7.63;62.53
55044;BME280;54902;50.420;18.854;2023-04-26T00:40:50;100842.34;;;7.62;62.54
55044;BME280;54902;50.420;18.854;2023-04-26T00:41:21;100837.86;;;7.61;62.54
55044;BME280;54902;50.420;18.854;2023-04-26T00:41:52;100838.83;;;7.60;62.50
55044;BME280;54902;50.420;18.854;2023-04-26T00:42:23;100837.09;;;7.59;62.47
55044;BME280;54902;50.420;18.854;2023-04-26T00:42:57;100854.40;;;7.58;62.45
55044;BME280;54902;50.420;18.854;2023-04-26T00:43:28;100837.32;;;7.56;62.44
55044;BME280;54902;50.420;18.854;2023-04-26T00:44:00;100849.08;;;7.57;62.42
55044;BME280;54902;50.420;18.854;2023-04-26T00:44:31;100837.32;;;7.56;62.42
55044;BME280;54902;50.420;18.854;2023-04-26T00:45:01;100834.72;;;7.55;62.38
55044;BME280;54902;50.420;18.854;2023-04-26T00:45:34;100831.13;;;7.54;62.34
55044;BME280;54902;50.420;18.854;2023-04-26T00:46:08;100838.63;;;7.51;62.31
55044;BME280;54902;50.420;18.854;2023-04-26T00:46:40;100844.91;;;7.51;62.31
55044;BME280;54902;50.420;18.854;2023-04-26T00:47:11;100836.02;;;7.50;62.29
55044;BME280;54902;50.420;18.854;2023-04-26T00:47:42;100835.24;;;7.48;62.26
55044;BME280;54902;50.420;18.854;2023-04-26T00:48:14;100833.52;;;7.47;62.27
55044;BME280;54902;50.420;18.854;2023-04-26T00:48:46;100834.50;;;7.46;62.25
55044;BME280;54902;50.420;18.854;2023-04-26T00:49:19;100845.37;;;7.46;62.24
55044;BME280;54902;50.420;18.854;2023-04-26T00:49:51;100834.73;;;7.43;62.22
55044;BME280;54902;50.420;18.854;2023-04-26T00:50:23;100841.12;;;7.42;62.23
55044;BME280;54902;50.420;18.854;2023-04-26T00:50:54;100842.09;;;7.41;62.23
55044;BME280;54902;50.420;18.854;2023-04-26T00:51:26;100832.20;;;7.40;62.19
55044;BME280;54902;50.420;18.854;2023-04-26T00:51:57;100842.20;;;7.39;62.18
55044;BME280;54902;50.420;18.854;2023-04-26T00:52:29;100842.31;;;7.38;62.17
55044;BME280;54902;50.420;18.854;2023-04-26T00:53:01;100841.54;;;7.36;62.15
55044;BME280;54902;50.420;18.854;2023-04-26T00:53:32;100836.22;;;7.34;62.14
55044;BME280;54902;50.420;18.854;2023-04-26T00:54:07;100840.80;;;7.34;62.15
55044;BME280;54902;50.420;18.854;2023-04-26T00:54:38;100834.59;;;7.32;62.13
55044;BME280;54902;50.420;18.854;2023-04-26T00:55:09;100840.98;;;7.31;62.15
55044;BME280;54902;50.420;18.854;2023-04-26T00:55:41;100844.70;;;7.30;62.17
55044;BME280;54902;50.420;18.854;2023-04-26T00:56:12;100828.52;;;7.28;62.12
55044;BME280;54902;50.420;18.854;2023-04-26T00:56:43;100841.20;;;7.28;62.14
55044;BME280;54902;50.420;18.854;2023-04-26T00:57:15;100838.60;;;7.26;62.15
55044;BME280;54902;50.420;18.854;2023-04-26T00:57:47;100839.58;;;7.25;62.15
55044;BME280;54902;50.420;18.854;2023-04-26T00:58:18;100835.14;;;7.24;62.12
55044;BME280;54902;50.420;18.854;2023-04-26T00:58:49;100843.37;;;7.23;62.12
55044;BME280;54902;50.420;18.854;2023-04-26T00:59:20;100834.47;;;7.21;62.13
55044;BME280;54902;50.420;18.854;2023-04-26T00:59:51;100838.16;;;7.20;62.15
55044;BME280;54902;50.420;18.854;2023-04-26T01:00:22;100840.87;;;7.20;62.16
55044;BME280;54902;50.420;18.854;2023-04-26T01:00:53;100839.13;;;7.19;62.16
55044;BME280;54902;50.420;18.854;2023-04-26T01:01:25;100843.81;;;7.17;62.14
55044;BME280;54902;50.420;18.854;2023-04-26T01:01:56;100841.09;;;7.17;62.17
55044;BME280;54902;50.420;18.854;2023-04-26T01:02:27;100840.31;;;7.15;62.20
55044;BME280;54902;50.420;18.854;2023-04-26T01:02:58;100845.74;;;7.15;62.14
55044;BME280;54902;50.420;18.854;2023-04-26T01:03:29;100842.28;;;7.13;62.15
55044;BME280;54902;50.420;18.854;2023-04-26T01:04:01;100841.39;;;7.12;62.15
55044;BME280;54902;50.420;18.854;2023-04-26T01:04:32;100845.96;;;7.12;62.17
55044;BME280;54902;50.420;18.854;2023-04-26T01:05:04;100845.19;;;7.10;62.13
55044;BME280;54902;50.420;18.854;2023-04-26T01:05:37;100844.33;;;7.09;62.16
55044;BME280;54902;50.420;18.854;2023-04-26T01:06:08;100842.57;;;7.08;62.12
55044;BME280;54902;50.420;18.854;2023-04-26T01:06:39;100839.01;;;7.08;62.13
55044;BME280;54902;50.420;18.854;2023-04-26T01:07:11;100848.13;;;7.07;62.14
55044;BME280;54902;50.420;18.854;2023-04-26T01:07:42;100834.65;;;7.05;62.17
55044;BME280;54902;50.420;18.854;2023-04-26T01:08:13;100837.48;;;7.04;62.14
55044;BME280;54902;50.420;18.854;2023-04-26T01:08:50;100843.88;;;7.03;62.10
55044;BME280;54902;50.420;18.854;2023-04-26T01:09:23;100838.55;;;7.01;62.08
55044;BME280;54902;50.420;18.854;2023-04-26T01:09:54;100833.12;;;7.01;62.05
55044;BME280;54902;50.420;18.854;2023-04-26T01:10:27;100845.05;;;6.99;62.05
55044;BME280;54902;50.420;18.854;2023-04-26T01:10:58;100844.20;;;6.98;62.04
55044;BME280;54902;50.420;18.854;2023-04-26T01:11:30;100838.88;;;6.97;62.01
55044;BME280;54902;50.420;18.854;2023-04-26T01:12:02;100829.84;;;6.96;62.01
55044;BME280;54902;50.420;18.854;2023-04-26T01:12:34;100842.56;;;6.96;62.00
55044;BME280;54902;50.420;18.854;2023-04-26T01:13:06;100834.64;;;6.93;62.02
55044;BME280;54902;50.420;18.854;2023-04-26T01:13:40;100845.49;;;6.93;62.02
55044;BME280;54902;50.420;18.854;2023-04-26T01:14:13;100838.31;;;6.92;62.00
55044;BME280;54902;50.420;18.854;2023-04-26T01:14:46;100836.79;;;6.88;61.87
55044;BME280;54902;50.420;18.854;2023-04-26T01:15:17;100843.96;;;6.89;61.99
55044;BME280;54902;50.420;18.854;2023-04-26T01:15:48;100833.29;;;6.86;61.99
55044;BME280;54902;50.420;18.854;2023-04-26T01:16:19;100839.61;;;6.87;62.02
55044;BME280;54902;50.420;18.854;2023-04-26T01:16:51;100841.43;;;6.86;62.02
55044;BME280;54902;50.420;18.854;2023-04-26T01:17:22;100836.98;;;6.85;62.00
55044;BME280;54902;50.420;18.854;2023-04-26T01:17:58;100838.07;;;6.83;61.98
55044;BME280;54902;50.420;18.854;2023-04-26T01:18:29;100835.45;;;6.81;61.99
55044;BME280;54902;50.420;18.854;2023-04-26T01:19:07;100840.86;;;6.81;61.98
55044;BME280;54902;50.420;18.854;2023-04-26T01:19:46;100844.59;;;6.80;62.00
55044;BME280;54902;50.420;18.854;2023-04-26T01:20:17;100836.55;;;6.79;61.98
55044;BME280;54902;50.420;18.854;2023-04-26T01:20:48;100844.77;;;6.77;61.97
55044;BME280;54902;50.420;18.854;2023-04-26T01:21:23;100843.05;;;6.76;61.99
55044;BME280;54902;50.420;18.854;2023-04-26T01:21:54;100843.05;;;6.76;61.98
55044;BME280;54902;50.420;18.854;2023-04-26T01:22:25;100836.84;;;6.74;62.00
55044;BME280;54902;50.420;18.854;2023-04-26T01:22:58;100837.80;;;6.73;61.99
55044;BME280;54902;50.420;18.854;2023-04-26T01:23:28;100853.24;;;6.73;62.01
55044;BME280;54902;50.420;18.854;2023-04-26T01:24:00;100841.52;;;6.72;61.99
55044;BME280;54902;50.420;18.854;2023-04-26T01:24:32;100846.05;;;6.72;62.03
55044;BME280;54902;50.420;18.854;2023-04-26T01:25:06;100844.30;;;6.71;62.05
55044;BME280;54902;50.420;18.854;2023-04-26T01:25:41;100843.45;;;6.70;62.05
55044;BME280;54902;50.420;18.854;2023-04-26T01:26:12;100841.70;;;6.69;62.04
55044;BME280;54902;50.420;18.854;2023-04-26T01:26:43;100853.55;;;6.68;62.04
55044;BME280;54902;50.420;18.854;2023-04-26T01:27:17;100845.41;;;6.68;62.04
55044;BME280;54902;50.420;18.854;2023-04-26T01:27:48;100851.80;;;6.67;62.10
55044;BME280;54902;50.420;18.854;2023-04-26T01:28:19;100847.34;;;6.66;62.08
55044;BME280;54902;50.420;18.854;2023-04-26T01:28:50;100856.45;;;6.65;62.05
55044;BME280;54902;50.420;18.854;2023-04-26T01:29:21;100851.02;;;6.65;62.05
55044;BME280;54902;50.420;18.854;2023-04-26T01:29:53;100849.30;;;6.64;62.03
55044;BME280;54902;50.420;18.854;2023-04-26T01:30:25;100852.98;;;6.63;62.04
55044;BME280;54902;50.420;18.854;2023-04-26T01:30:56;100856.56;;;6.64;62.03
55044;BME280;54902;50.420;18.854;2023-04-26T01:31:27;100852.98;;;6.63;62.05
55044;BME280;54902;50.420;18.854;2023-04-26T01:31:57;100851.24;;;6.62;62.06
55044;BME280;54902;50.420;18.854;2023-04-26T01:32:28;100848.63;;;6.61;62.07
55044;BME280;54902;50.420;18.854;2023-04-26T01:32:59;100855.91;;;6.60;62.08
55044;BME280;54902;50.420;18.854;2023-04-26T01:33:30;100848.73;;;6.59;62.06
55044;BME280;54902;50.420;18.854;2023-04-26T01:34:02;100847.85;;;6.59;62.06
55044;BME280;54902;50.420;18.854;2023-04-26T01:34:32;100858.70;;;6.59;62.06
55044;BME280;54902;50.420;18.854;2023-04-26T01:35:04;100858.80;;;6.57;62.07
55044;BME280;54902;50.420;18.854;2023-04-26T01:35:35;100856.09;;;6.57;62.06
55044;BME280;54902;50.420;18.854;2023-04-26T01:36:09;100855.23;;;6.57;62.09
55044;BME280;54902;50.420;18.854;2023-04-26T01:36:40;100858.05;;;6.55;62.08
55044;BME280;54902;50.420;18.854;2023-04-26T01:37:12;100855.34;;;6.55;62.06
55044;BME280;54902;50.420;18.854;2023-04-26T01:37:43;100853.59;;;6.54;62.11
55044;BME280;54902;50.420;18.854;2023-04-26T01:38:13;100851.84;;;6.53;62.07
55044;BME280;54902;50.420;18.854;2023-04-26T01:38:47;100857.27;;;6.53;62.08
55044;BME280;54902;50.420;18.854;2023-04-26T01:39:18;100848.38;;;6.51;62.06
55044;BME280;54902;50.420;18.854;2023-04-26T01:39:49;100852.91;;;6.51;62.05
55044;BME280;54902;50.420;18.854;2023-04-26T01:40:20;100857.48;;;6.50;62.05
55044;BME280;54902;50.420;18.854;2023-04-26T01:40:51;100856.80;;;6.47;62.17
55044;BME280;54902;50.420;18.854;2023-04-26T01:41:22;100861.16;;;6.49;62.04
55044;BME280;54902;50.420;18.854;2023-04-26T01:41:56;100859.41;;;6.48;62.05
55044;BME280;54902;50.420;18.854;2023-04-26T01:42:28;100858.66;;;6.46;62.03
55044;BME280;54902;50.420;18.854;2023-04-26T01:42:59;100866.80;;;6.46;62.06
55044;BME280;54902;50.420;18.854;2023-04-26T01:43:32;100856.91;;;6.45;62.05
55044;BME280;54902;50.420;18.854;2023-04-26T01:44:03;100852.45;;;6.44;62.05
55044;BME280;54902;50.420;18.854;2023-04-26T01:44:34;100851.59;;;6.44;62.06
55044;BME280;54902;50.420;18.854;2023-04-26T01:45:06;100855.26;;;6.43;62.04
55044;BME280;54902;50.420;18.854;2023-04-26T01:45:37;100854.40;;;6.42;62.06
55044;BME280;54902;50.420;18.854;2023-04-26T01:46:08;100854.40;;;6.42;62.06
55044;BME280;54902;50.420;18.854;2023-04-26T01:46:39;100864.48;;;6.40;62.06
55044;BME280;54902;50.420;18.854;2023-04-26T01:47:10;100862.76;;;6.39;62.04
55044;BME280;54902;50.420;18.854;2023-04-26T01:47:40;100860.05;;;6.39;62.05
55044;BME280;54902;50.420;18.854;2023-04-26T01:48:11;100859.15;;;6.39;62.05
55044;BME280;54902;50.420;18.854;2023-04-26T01:48:42;100857.41;;;6.38;62.08
55044;BME280;54902;50.420;18.854;2023-04-26T01:49:13;100861.97;;;6.37;62.10
55044;BME280;54902;50.420;18.854;2023-04-26T01:49:44;100851.22;;;6.36;62.09
55044;BME280;54902;50.420;18.854;2023-04-26T01:50:15;100856.66;;;6.36;62.13
55044;BME280;54902;50.420;18.854;2023-04-26T01:50:46;100856.76;;;6.35;62.11
55044;BME280;54902;50.420;18.854;2023-04-26T01:51:17;100859.47;;;6.35;62.11
55044;BME280;54902;50.420;18.854;2023-04-26T01:51:48;100857.72;;;6.34;62.10
55044;BME280;54902;50.420;18.854;2023-04-26T01:52:21;100859.57;;;6.33;62.07
55044;BME280;54902;50.420;18.854;2023-04-26T01:52:52;100857.82;;;6.32;62.08
55044;BME280;54902;50.420;18.854;2023-04-26T01:53:23;100857.92;;;6.31;62.07
55044;BME280;54902;50.420;18.854;2023-04-26T01:53:54;100858.89;;;6.30;62.09
55044;BME280;54902;50.420;18.854;2023-04-26T01:54:25;100858.03;;;6.29;62.06
55044;BME280;54902;50.420;18.854;2023-04-26T01:54:56;100849.96;;;6.28;62.04
55044;BME280;54902;50.420;18.854;2023-04-26T01:55:27;100858.10;;;6.28;62.05
55044;BME280;54902;50.420;18.854;2023-04-26T01:56:01;100856.38;;;6.27;62.06
55044;BME280;54902;50.420;18.854;2023-04-26T01:56:32;100869.05;;;6.26;62.06
55044;BME280;54902;50.420;18.854;2023-04-26T01:57:03;100862.88;;;6.24;62.07
55044;BME280;54902;50.420;18.854;2023-04-26T01:57:34;100858.41;;;6.23;62.04
55044;BME280;54902;50.420;18.854;2023-04-26T01:58:05;100841.98;;;6.12;62.05
55044;BME280;54902;50.420;18.854;2023-04-26T01:58:36;100854.06;;;6.21;62.07
55044;BME280;54902;50.420;18.854;2023-04-26T01:59:07;100854.91;;;6.21;62.07
55044;BME280;54902;50.420;18.854;2023-04-26T01:59:38;100856.77;;;6.21;62.07
55044;BME280;54902;50.420;18.854;2023-04-26T02:00:09;100861.45;;;6.19;62.04
55044;BME280;54902;50.420;18.854;2023-04-26T02:00:41;100854.27;;;6.18;62.04
55044;BME280;54902;50.420;18.854;2023-04-26T02:01:11;100859.70;;;6.18;62.09
55044;BME280;54902;50.420;18.854;2023-04-26T02:01:43;100866.09;;;6.17;62.12
55044;BME280;54902;50.420;18.854;2023-04-26T02:02:16;100858.90;;;6.16;62.11
55044;BME280;54902;50.420;18.854;2023-04-26T02:02:48;100856.19;;;6.16;62.09
55044;BME280;54902;50.420;18.854;2023-04-26T02:03:19;100857.19;;;6.15;62.09
55044;BME280;54902;50.420;18.854;2023-04-26T02:03:51;100858.15;;;6.14;62.13
55044;BME280;54902;50.420;18.854;2023-04-26T02:04:22;100857.26;;;6.13;62.12
55044;BME280;54902;50.420;18.854;2023-04-26T02:04:53;100861.82;;;6.13;62.09
55044;BME280;54902;50.420;18.854;2023-04-26T02:05:25;100861.82;;;6.13;62.13
55044;BME280;54902;50.420;18.854;2023-04-26T02:05:56;100863.78;;;6.11;62.13
55044;BME280;54902;50.420;18.854;2023-04-26T02:06:27;100856.61;;;6.10;62.13
55044;BME280;54902;50.420;18.854;2023-04-26T02:06:58;100855.71;;;6.09;62.20
55044;BME280;54902;50.420;18.854;2023-04-26T02:07:29;100857.57;;;6.09;62.14
55044;BME280;54902;50.420;18.854;2023-04-26T02:08:00;100860.28;;;6.09;62.13
55044;BME280;54902;50.420;18.854;2023-04-26T02:08:31;100859.49;;;6.07;62.13
55044;BME280;54902;50.420;18.854;2023-04-26T02:09:03;100859.49;;;6.07;62.12
55044;BME280;54902;50.420;18.854;2023-04-26T02:09:34;100849.64;;;6.06;62.13
55044;BME280;54902;50.420;18.854;2023-04-26T02:10:06;100855.06;;;6.06;62.18
55044;BME280;54902;50.420;18.854;2023-04-26T02:10:37;100850.71;;;6.03;62.21
55044;BME280;54902;50.420;18.854;2023-04-26T02:11:08;100853.32;;;6.05;62.25
55044;BME280;54902;50.420;18.854;2023-04-26T02:11:40;100852.52;;;6.03;62.29
55044;BME280;54902;50.420;18.854;2023-04-26T02:12:11;100856.98;;;6.04;62.30
55044;BME280;54902;50.420;18.854;2023-04-26T02:12:42;100858.95;;;6.02;62.24
55044;BME280;54902;50.420;18.854;2023-04-26T02:13:13;100857.19;;;6.01;62.20
55044;BME280;54902;50.420;18.854;2023-04-26T02:13:44;100856.34;;;6.00;62.17
55044;BME280;54902;50.420;18.854;2023-04-26T02:14:15;100852.83;;;5.98;62.16
55044;BME280;54902;50.420;18.854;2023-04-26T02:14:46;100857.41;;;5.98;62.14
55044;BME280;54902;50.420;18.854;2023-04-26T02:15:17;100852.93;;;5.97;62.16
55044;BME280;54902;50.420;18.854;2023-04-26T02:15:48;100855.76;;;5.95;62.20
55044;BME280;54902;50.420;18.854;2023-04-26T02:16:20;100852.15;;;5.95;62.19
55044;BME280;54902;50.420;18.854;2023-04-26T02:16:51;100855.85;;;5.94;62.19
55044;BME280;54902;50.420;18.854;2023-04-26T02:17:24;100854.11;;;5.93;62.17
55044;BME280;54902;50.420;18.854;2023-04-26T02:17:56;100859.63;;;5.91;62.15
55044;BME280;54902;50.420;18.854;2023-04-26T02:18:26;100856.91;;;5.91;62.20
55044;BME280;54902;50.420;18.854;2023-04-26T02:18:59;100861.45;;;5.91;62.21
55044;BME280;54902;50.420;18.854;2023-04-26T02:19:30;100859.73;;;5.90;62.22
55044;BME280;54902;50.420;18.854;2023-04-26T02:20:01;100862.52;;;5.88;62.22
55044;BME280;54902;50.420;18.854;2023-04-26T02:20:33;100849.95;;;5.87;62.21
55044;BME280;54902;50.420;18.854;2023-04-26T02:21:07;100861.76;;;5.86;62.21
55044;BME280;54902;50.420;18.854;2023-04-26T02:22:23;100855.55;;;5.84;62.23
55044;BME280;54902;50.420;18.854;2023-04-26T02:22:55;100860.97;;;5.84;62.25
55044;BME280;54902;50.420;18.854;2023-04-26T02:23:26;100854.68;;;5.84;62.27
55044;BME280;54902;50.420;18.854;2023-04-26T02:23:57;100855.75;;;5.81;62.25
55044;BME280;54902;50.420;18.854;2023-04-26T02:24:28;100856.60;;;5.82;62.26
55044;BME280;54902;50.420;18.854;2023-04-26T02:24:59;100853.14;;;5.80;62.25
55044;BME280;54902;50.420;18.854;2023-04-26T02:25:30;100852.27;;;5.79;62.22
55044;BME280;54902;50.420;18.854;2023-04-26T02:26:03;100856.80;;;5.79;62.21
55044;BME280;54902;50.420;18.854;2023-04-26T02:26:34;100847.91;;;5.77;62.11
55044;BME280;54902;50.420;18.854;2023-04-26T02:27:05;100854.20;;;5.78;62.21
55044;BME280;54902;50.420;18.854;2023-04-26T02:27:37;100851.59;;;5.76;62.19
55044;BME280;54902;50.420;18.854;2023-04-26T02:28:08;100854.37;;;5.75;62.23
55044;BME280;54902;50.420;18.854;2023-04-26T02:28:39;100854.37;;;5.75;62.31
55044;BME280;54902;50.420;18.854;2023-04-26T02:29:11;100859.79;;;5.75;62.30
55044;BME280;54902;50.420;18.854;2023-04-26T02:29:42;100853.48;;;5.74;62.29
55044;BME280;54902;50.420;18.854;2023-04-26T02:30:13;100861.70;;;5.73;62.30
55044;BME280;54902;50.420;18.854;2023-04-26T02:30:44;100859.89;;;5.73;62.34
55044;BME280;54902;50.420;18.854;2023-04-26T02:31:15;100862.70;;;5.72;62.32
55044;BME280;54902;50.420;18.854;2023-04-26T02:31:46;100868.13;;;5.72;62.27
55044;BME280;54902;50.420;18.854;2023-04-26T02:32:18;100859.09;;;5.71;62.35
55044;BME280;54902;50.420;18.854;2023-04-26T02:32:49;100858.24;;;5.71;62.34
55044;BME280;54902;50.420;18.854;2023-04-26T02:33:21;100860.06;;;5.70;62.46
55044;BME280;54902;50.420;18.854;2023-04-26T02:33:52;100863.76;;;5.69;62.30
55044;BME280;54902;50.420;18.854;2023-04-26T02:34:23;100861.05;;;5.69;62.30
55044;BME280;54902;50.420;18.854;2023-04-26T02:34:54;100862.02;;;5.68;62.32
55044;BME280;54902;50.420;18.854;2023-04-26T02:35:25;100864.73;;;5.68;62.33
55044;BME280;54902;50.420;18.854;2023-04-26T02:35:57;100867.44;;;5.68;62.33
55044;BME280;54902;50.420;18.854;2023-04-26T02:36:28;100867.54;;;5.67;62.34
55044;BME280;54902;50.420;18.854;2023-04-26T02:36:59;100860.25;;;5.67;62.35
55044;BME280;54902;50.420;18.854;2023-04-26T02:37:31;100860.37;;;5.66;62.37
55044;BME280;54902;50.420;18.854;2023-04-26T02:38:03;100861.23;;;5.66;62.35
55044;BME280;54902;50.420;18.854;2023-04-26T02:38:35;100859.50;;;5.65;62.42
55044;BME280;54902;50.420;18.854;2023-04-26T02:39:06;100862.20;;;5.65;62.39
55044;BME280;54902;50.420;18.854;2023-04-26T02:39:37;100853.20;;;5.65;62.49
55044;BME280;54902;50.420;18.854;2023-04-26T02:40:08;100857.76;;;5.64;62.48
55044;BME280;54902;50.420;18.854;2023-04-26T02:40:40;100851.44;;;5.64;62.52
55044;BME280;54902;50.420;18.854;2023-04-26T02:41:11;100865.98;;;5.63;62.46
55044;BME280;54902;50.420;18.854;2023-04-26T02:41:42;100868.79;;;5.61;62.44
55044;BME280;54902;50.420;18.854;2023-04-26T02:42:13;100852.54;;;5.61;62.46
55044;BME280;54902;50.420;18.854;2023-04-26T02:42:44;100857.96;;;5.61;62.48
55044;BME280;54902;50.420;18.854;2023-04-26T02:43:15;100856.21;;;5.60;62.43
55044;BME280;54902;50.420;18.854;2023-04-26T02:43:46;100853.59;;;5.59;62.49
55044;BME280;54902;50.420;18.854;2023-04-26T02:44:17;100856.37;;;5.57;62.50
55044;BME280;54902;50.420;18.854;2023-04-26T02:44:48;100851.85;;;5.58;62.49
55044;BME280;54902;50.420;18.854;2023-04-26T02:45:19;100865.49;;;5.56;62.46
55044;BME280;54902;50.420;18.854;2023-04-26T02:45:50;100856.57;;;5.54;62.48